Time;durP1;ratioP1;P1;durP2;ratioP2;P2;SDS_P1;SDS_P2;PMS_P1;PMS_P2;Temp;Humidity;BMP_temperature;BMP_pressure;BME280_temperature;BME280_humidity;BME280_pressure;Samples;Min_cycle;Max_cycle;Signal;HPM_P1;HPM_P2
2021/07/05 00:01:42;;;;;;;;;;;;;;;;;;4921487;29;19915;-86
2021/07/05 00:04:08;;;;;;;;;;;;;;;;;;4925099;29;19919;-86
2021/07/05 00:06:34;;;;;;;;;;;;;;;;;;4933858;29;20010;-87
2021/07/05 00:09:00;;;;;;;;;;;;;;;;;;4917019;29;19915;-86
2021/07/05 00:11:26;;;;;;;;;;;;;;;;;;4920369;29;19915;-86
2021/07/05 00:13:52;;;;;;;;;;;;;;;;;;4911026;29;19989;-86
2021/07/05 00:16:18;;;;;;;;;;;;;;;;;;4937513;29;20007;-86
2021/07/05 00:18:44;;;;;;;;;;;;;;;;;;4926622;29;19923;-86
2021/07/05 00:21:10;;;;;;;;;;;;;;;;;;4933589;29;20283;-85
2021/07/05 00:23:36;;;;;;;;;;;;;;;;;;4923289;29;19914;-86
2021/07/05 00:26:02;;;;;;;;;;;;;;;;;;4925231;29;19919;-86
2021/07/05 00:28:28;;;;;;;;;;;;;;;;;;4918388;29;19920;-86
2021/07/05 00:30:54;;;;;;;;;;;;;;;;;;4917709;29;19962;-85
2021/07/05 00:33:20;;;;;;;;;;;;;;;;;;4924378;29;19921;-86
2021/07/05 00:35:46;;;;;;;;;;;;;;;;;;4925441;29;19915;-87
2021/07/05 00:38:12;;;;;;;;;;;;;;;;;;4940540;28;19914;-88
2021/07/05 00:40:38;;;;;;;;;;;;;;;;;;4929321;29;20017;-86
2021/07/05 00:43:04;;;;;;;;;;;;;;;;;;4917527;29;19969;-87
2021/07/05 00:45:30;;;;;;;;;;;;;;;;;;4934649;29;19926;-87
2021/07/05 00:47:56;;;;;;;;;;;;;;;;;;4922551;29;19919;-86
2021/07/05 00:50:24;;;;;;;;;;;;;;;;;;4929863;29;20029;-87
2021/07/05 00:52:50;;;;;;;;;;;;;;;;;;4921587;29;19925;-87
2021/07/05 00:55:17;;;;;;;;;;;;;;;;;;4935932;29;20434;-86
2021/07/05 00:57:43;;;;;;;;;;;;;;;;;;4931034;29;19965;-87
2021/07/05 01:00:09;;;;;;;;;;;;;;;;;;4929981;29;19934;-87
2021/07/05 01:02:35;;;;;;;;;;;;;;;;;;4949938;28;19957;-86
2021/07/05 01:05:01;;;;;;;;;;;;;;;;;;4929707;29;19954;-87
2021/07/05 01:07:27;;;;;;;;;;;;;;;;;;4931774;29;20331;-86
2021/07/05 01:09:53;;;;;;;;;;;;;;;;;;4933505;29;19958;-86
2021/07/05 01:12:19;;;;;;;;;;;;;;;;;;4934837;29;19918;-87
2021/07/05 01:14:45;;;;;;;;;;;;;;;;;;4934636;29;19985;-87
2021/07/05 01:17:13;;;;;;;;;;;;;;;;;;4931941;29;19915;-88
2021/07/05 01:19:39;;;;;;;;;;;;;;;;;;4934169;29;19926;-87
2021/07/05 01:22:05;;;;;;;;;;;;;;;;;;4928729;29;19919;-87
2021/07/05 01:24:31;;;;;;;;;;;;;;;;;;4936835;29;19961;-87
2021/07/05 01:26:57;;;;;;;;;;;;;;;;;;4930639;29;19984;-87
2021/07/05 01:29:23;;;;;;;;;;;;;;;;;;4934069;29;19910;-87
2021/07/05 01:31:49;;;;;;;;;;;;;;;;;;4944135;28;19922;-86
2021/07/05 01:34:15;;;;;;;;;;;;;;;;;;4947891;28;19966;-87
2021/07/05 01:36:43;;;;;;;;;;;;;;;;;;4932685;29;20270;-87
2021/07/05 01:39:09;;;;;;;;;;;;;;;;;;4930421;29;20021;-87
2021/07/05 01:41:35;;;;;;;;;;;;;;;;;;4930727;29;19970;-87
2021/07/05 01:44:01;;;;;;;;;;;;;;;;;;4930899;29;19923;-86
2021/07/05 01:46:27;;;;;;;;;;;;;;;;;;4928933;29;19966;-87
2021/07/05 01:48:53;;;;;;;;;;;;;;;;;;4929502;29;19946;-87
2021/07/05 01:51:19;;;;;;;;;;;;;;;;;;4933626;29;19956;-87
2021/07/05 01:53:45;;;;;;;;;;;;;;;;;;4928987;29;20320;-87
2021/07/05 01:56:12;;;;;;;;;;;;;;;;;;4945627;28;20006;-87
2021/07/05 01:58:38;;;;;;;;;;;;;;;;;;4949501;28;20100;-87
2021/07/05 02:01:04;;;;;;;;;;;;;;;;;;4952050;28;19942;-87
2021/07/05 02:03:30;;;;;;;;;;;;;;;;;;4954115;28;19915;-86
2021/07/05 02:05:56;;;;;;;;;;;;;;;;;;4931587;29;19918;-86
2021/07/05 02:08:22;;;;;;;;;;;;;;;;;;4941164;29;20001;-87
2021/07/05 02:10:50;;;;;;;;;;;;;;;;;;4940439;28;20349;-86
2021/07/05 02:13:16;;;;;;;;;;;;;;;;;;4953838;28;19940;-87
2021/07/05 02:15:43;;;;;;;;;;;;;;;;;;4934782;29;20362;-87
2021/07/05 02:18:09;;;;;;;;;;;;;;;;;;4940174;29;19922;-87
2021/07/05 02:20:35;;;;;;;;;;;;;;;;;;4945583;28;20044;-87
2021/07/05 02:23:01;;;;;;;;;;;;;;;;;;4929469;29;19919;-86
2021/07/05 02:25:27;;;;;;;;;;;;;;;;;;4938466;29;19915;-86
2021/07/05 02:27:55;;;;;;;;;;;;;;;;;;4940422;29;19938;-87
2021/07/05 02:30:21;;;;;;;;;;;;;;;;;;4947249;28;19977;-87
2021/07/05 02:32:47;;;;;;;;;;;;;;;;;;4938951;29;19969;-87
2021/07/05 02:35:13;;;;;;;;;;;;;;;;;;4935034;29;20013;-87
2021/07/05 02:37:39;;;;;;;;;;;;;;;;;;4937915;29;19927;-87
2021/07/05 02:40:06;;;;;;;;;;;;;;;;;;4935506;28;20115;-87
2021/07/05 02:42:32;;;;;;;;;;;;;;;;;;4946105;28;19914;-87
2021/07/05 02:44:58;;;;;;;;;;;;;;;;;;4936049;29;20346;-87
2021/07/05 02:47:24;;;;;;;;;;;;;;;;;;4951705;28;19915;-87
2021/07/05 02:49:50;;;;;;;;;;;;;;;;;;4941386;28;19914;-86
2021/07/05 02:52:16;;;;;;;;;;;;;;;;;;4956358;28;20005;-87
2021/07/05 02:54:42;;;;;;;;;;;;;;;;;;4935863;29;19918;-86
2021/07/05 02:57:08;;;;;;;;;;;;;;;;;;4927749;29;19930;-86
2021/07/05 02:59:34;;;;;;;;;;;;;;;;;;4923036;29;19942;-87
2021/07/05 03:02:00;;;;;;;;;;;;;;;;;;4911487;29;20270;-86
2021/07/05 03:04:26;;;;;;;;;;;;;;;;;;4931851;29;19993;-87
2021/07/05 03:06:52;;;;;;;;;;;;;;;;;;4930426;29;19914;-86
2021/07/05 03:09:18;;;;;;;;;;;;;;;;;;4918661;29;19922;-86
2021/07/05 03:11:44;;;;;;;;;;;;;;;;;;4916209;29;19970;-87
2021/07/05 03:14:10;;;;;;;;;;;;;;;;;;4931246;29;19927;-87
2021/07/05 03:16:36;;;;;;;;;;;;;;;;;;4916981;29;19919;-86
2021/07/05 03:19:02;;;;;;;;;;;;;;;;;;4917817;29;19919;-85
2021/07/05 03:21:28;;;;;;;;;;;;;;;;;;4928625;29;19957;-88
2021/07/05 03:23:55;;;;;;;;;;;;;;;;;;4919590;29;19918;-87
2021/07/05 03:26:21;;;;;;;;;;;;;;;;;;4917349;29;20323;-88
2021/07/05 03:28:47;;;;;;;;;;;;;;;;;;4917760;29;19922;-87
2021/07/05 03:31:13;;;;;;;;;;;;;;;;;;4924620;29;19922;-87
2021/07/05 03:33:39;;;;;;;;;;;;;;;;;;4914324;29;20009;-87
2021/07/05 03:36:05;;;;;;;;;;;;;;;;;;4919945;29;19982;-86
2021/07/05 03:38:31;;;;;;;;;;;;;;;;;;4935048;29;19957;-87
2021/07/05 03:40:57;;;;;;;;;;;;;;;;;;4931567;29;19918;-87
2021/07/05 03:43:25;;;;;;;;;;;;;;;;;;4931589;29;20366;-87
2021/07/05 03:45:51;;;;;;;;;;;;;;;;;;4931954;29;19914;-87
2021/07/05 03:48:17;;;;;;;;;;;;;;;;;;4920735;29;19946;-87
2021/07/05 03:50:43;;;;;;;;;;;;;;;;;;4911657;29;19919;-87
2021/07/05 03:53:09;;;;;;;;;;;;;;;;;;4928681;29;19925;-87
2021/07/05 03:55:36;;;;;;;;;;;;;;;;;;4916721;29;19915;-87
2021/07/05 03:58:02;;;;;;;;;;;;;;;;;;4927441;29;19973;-87
2021/07/05 04:00:28;;;;;;;;;;;;;;;;;;4934556;28;19933;-88
2021/07/05 04:02:54;;;;;;;;;;;;;;;;;;4933936;29;19915;-87
2021/07/05 04:05:20;;;;;;;;;;;;;;;;;;4948518;28;19921;-88
2021/07/05 04:07:46;;;;;;;;;;;;;;;;;;4952179;28;19919;-87
2021/07/05 04:10:12;;;;;;;;;;;;;;;;;;4939310;29;19914;-87
2021/07/05 04:12:38;;;;;;;;;;;;;;;;;;4938601;29;19914;-87
2021/07/05 04:15:04;;;;;;;;;;;;;;;;;;4947416;28;20401;-88
2021/07/05 04:17:30;;;;;;;;;;;;;;;;;;4950819;28;19914;-88
2021/07/05 04:19:56;;;;;;;;;;;;;;;;;;4934517;28;20381;-87
2021/07/05 04:22:22;;;;;;;;;;;;;;;;;;4933426;28;19915;-87
2021/07/05 04:24:48;;;;;;;;;;;;;;;;;;4935702;29;19918;-87
2021/07/05 04:27:14;;;;;;;;;;;;;;;;;;4932472;29;19969;-86
2021/07/05 04:29:40;;;;;;;;;;;;;;;;;;4935702;29;20347;-87
2021/07/05 04:32:07;;;;;;;;;;;;;;;;;;4927796;29;19959;-87
2021/07/05 04:34:33;;;;;;;;;;;;;;;;;;4951184;28;20380;-87
2021/07/05 04:36:59;;;;;;;;;;;;;;;;;;4929980;29;19921;-86
2021/07/05 04:39:25;;;;;;;;;;;;;;;;;;4950757;28;19926;-87
2021/07/05 04:41:51;;;;;;;;;;;;;;;;;;4950223;28;19921;-86
2021/07/05 04:44:17;;;;;;;;;;;;;;;;;;4944597;28;19915;-87
2021/07/05 04:46:47;;;;;;;;;;;;;;;;;;4935988;28;19926;-86
2021/07/05 04:49:13;;;;;;;;;;;;;;;;;;4955708;28;20350;-87
2021/07/05 04:51:40;;;;;;;;;;;;;;;;;;4934839;29;20385;-86
2021/07/05 04:54:06;;;;;;;;;;;;;;;;;;4953980;28;20349;-87
2021/07/05 04:56:32;;;;;;;;;;;;;;;;;;4934846;29;20689;-87
2021/07/05 04:58:58;;;;;;;;;;;;;;;;;;4934552;28;19950;-86
2021/07/05 05:01:24;;;;;;;;;;;;;;;;;;4952614;28;20005;-86
2021/07/05 05:03:50;;;;;;;;;;;;;;;;;;4953035;28;19986;-86
2021/07/05 05:06:16;;;;;;;;;;;;;;;;;;4940919;28;19929;-87
2021/07/05 05:08:42;;;;;;;;;;;;;;;;;;4934762;29;20235;-87
2021/07/05 05:11:08;;;;;;;;;;;;;;;;;;4948805;28;19914;-86
2021/07/05 05:13:34;;;;;;;;;;;;;;;;;;4952302;28;19919;-87
2021/07/05 05:16:00;;;;;;;;;;;;;;;;;;4950319;28;19915;-87
2021/07/05 05:18:26;;;;;;;;;;;;;;;;;;4946607;28;20367;-87
2021/07/05 05:20:55;;;;;;;;;;;;;;;;;;4950276;28;20396;-87
2021/07/05 05:23:21;;;;;;;;;;;;;;;;;;4951912;28;19922;-87
2021/07/05 05:25:47;;;;;;;;;;;;;;;;;;4949149;28;19926;-86
2021/07/05 05:28:13;;;;;;;;;;;;;;;;;;4950381;28;19968;-87
2021/07/05 05:30:39;;;;;;;;;;;;;;;;;;4938275;29;19940;-87
2021/07/05 05:33:05;;;;;;;;;;;;;;;;;;4934389;29;20359;-87
2021/07/05 05:35:31;;;;;;;;;;;;;;;;;;4941501;29;19965;-87
2021/07/05 05:37:57;;;;;;;;;;;;;;;;;;4935973;28;19976;-87
2021/07/05 05:40:23;;;;;;;;;;;;;;;;;;4951299;28;20366;-87
2021/07/05 05:42:49;;;;;;;;;;;;;;;;;;4946266;28;19949;-86
2021/07/05 05:45:15;;;;;;;;;;;;;;;;;;4950046;28;20012;-88
2021/07/05 05:47:41;;;;;;;;;;;;;;;;;;4942279;28;19978;-88
2021/07/05 05:50:07;;;;;;;;;;;;;;;;;;4932541;28;19926;-88
2021/07/05 05:52:33;;;;;;;;;;;;;;;;;;4932608;29;20351;-88
2021/07/05 05:54:59;;;;;;;;;;;;;;;;;;4947438;28;19951;-89
2021/07/05 05:57:26;;;;;;;;;;;;;;;;;;4948425;28;19926;-88
2021/07/05 05:59:53;;;;;;;;;;;;;;;;;;4945654;28;19919;-88
2021/07/05 06:02:19;;;;;;;;;;;;;;;;;;4948548;28;19926;-88
2021/07/05 06:04:45;;;;;;;;;;;;;;;;;;4944810;28;19918;-88
2021/07/05 06:07:11;;;;;;;;;;;;;;;;;;4929892;28;19919;-88
2021/07/05 06:09:37;;;;;;;;;;;;;;;;;;4961545;28;19972;-87
2021/07/05 06:12:03;;;;;;;;;;;;;;;;;;4931603;28;19961;-87
2021/07/05 06:14:29;;;;;;;;;;;;;;;;;;4931735;28;19955;-87
2021/07/05 06:16:55;;;;;;;;;;;;;;;;;;4928287;28;19990;-85
2021/07/05 06:19:21;;;;;;;;;;;;;;;;;;4950570;28;19937;-86
2021/07/05 06:21:48;;;;;;;;;;;;;;;;;;4959071;28;20128;-86
2021/07/05 06:24:14;;;;;;;;;;;;;;;;;;4957203;28;19998;-87
2021/07/05 06:26:40;;;;;;;;;;;;;;;;;;4943407;28;19922;-86
2021/07/05 06:29:06;;;;;;;;;;;;;;;;;;4959285;28;19957;-88
2021/07/05 06:31:36;;;;;;;;;;;;;;;;;;4933693;28;19965;-87
2021/07/05 06:34:02;;;;;;;;;;;;;;;;;;4944671;28;19923;-87
2021/07/05 06:36:28;;;;;;;;;;;;;;;;;;4945519;28;19915;-87
2021/07/05 06:38:54;;;;;;;;;;;;;;;;;;4933749;28;20270;-87
2021/07/05 06:41:20;;;;;;;;;;;;;;;;;;4938745;28;19969;-86
2021/07/05 06:43:47;;;;;;;;;;;;;;;;;;4940342;28;19919;-88
2021/07/05 06:46:13;;;;;;;;;;;;;;;;;;4936947;28;19940;-88
2021/07/05 06:48:41;;;;;;;;;;;;;;;;;;4950811;28;20382;-88
2021/07/05 06:51:07;;;;;;;;;;;;;;;;;;4931648;28;19910;-88
2021/07/05 06:53:33;;;;;;;;;;;;;;;;;;4930074;28;19923;-88
2021/07/05 06:55:59;;;;;;;;;;;;;;;;;;4946193;28;19917;-88
2021/07/05 06:58:25;;;;;;;;;;;;;;;;;;4943839;28;19922;-87
2021/07/05 07:00:51;;;;;;;;;;;;;;;;;;4957221;28;20370;-88
2021/07/05 07:03:17;;;;;;;;;;;;;;;;;;4942653;29;19918;-86
2021/07/05 07:05:43;;;;;;;;;;;;;;;;;;4950532;28;19949;-88
2021/07/05 07:08:10;;;;;;;;;;;;;;;;;;4928862;28;20013;-87
2021/07/05 07:10:36;;;;;;;;;;;;;;;;;;4928753;28;19930;-88
2021/07/05 07:13:02;;;;;;;;;;;;;;;;;;4933944;28;20331;-87
2021/07/05 07:15:39;;;;;;;;;;;;;;;;;;4949115;28;19973;-88
2021/07/05 07:20:31;;;;;;;;;;;;;;;;;;4947573;28;19918;-87
2021/07/05 07:22:57;;;;;;;;;;;;;;;;;;4930859;28;19968;-88
2021/07/05 07:25:23;;;;;;;;;;;;;;;;;;4944617;28;19919;-87
2021/07/05 07:27:50;;;;;;;;;;;;;;;;;;4941272;28;19919;-88
2021/07/05 07:30:16;;;;;;;;;;;;;;;;;;4941095;28;20288;-88
2021/07/05 07:32:42;;;;;;;;;;;;;;;;;;4946566;28;19945;-88
2021/07/05 07:35:08;;;;;;;;;;;;;;;;;;4931548;28;19930;-88
2021/07/05 07:37:35;;;;;;;;;;;;;;;;;;4934388;29;20349;-89
2021/07/05 07:40:14;;;;;;;;;;;;;;;;;;4944542;28;19934;-87
2021/07/05 07:42:40;;;;;;;;;;;;;;;;;;4930241;28;20354;-88
2021/07/05 07:45:06;;;;;;;;;;;;;;;;;;4928621;28;19915;-89
2021/07/05 07:47:32;;;;;;;;;;;;;;;;;;4933958;29;19919;-88
2021/07/05 07:49:58;;;;;;;;;;;;;;;;;;4940193;28;20061;-89
2021/07/05 07:52:26;;;;;;;;;;;;;;;;;;4930857;28;19945;-91
2021/07/05 07:54:52;;;;;;;;;;;;;;;;;;4931010;28;19914;-89
2021/07/05 07:57:18;;;;;;;;;;;;;;;;;;4960829;28;19933;-88
2021/07/05 07:59:44;;;;;;;;;;;;;;;;;;4935956;28;19927;-89
2021/07/05 08:02:11;;;;;;;;;;;;;;;;;;4945788;28;20002;-88
2021/07/05 08:04:37;;;;;;;;;;;;;;;;;;4933177;28;19919;-90
2021/07/05 08:07:03;;;;;;;;;;;;;;;;;;4944171;28;19985;-88
2021/07/05 08:09:29;;;;;;;;;;;;;;;;;;4930538;28;19946;-89
2021/07/05 08:11:55;;;;;;;;;;;;;;;;;;4936445;28;19953;-88
2021/07/05 08:14:21;;;;;;;;;;;;;;;;;;4952886;28;20337;-89
2021/07/05 08:16:47;;;;;;;;;;;;;;;;;;4936841;29;19921;-90
2021/07/05 08:19:13;;;;;;;;;;;;;;;;;;4944758;28;19918;-89
2021/07/05 08:21:41;;;;;;;;;;;;;;;;;;4954854;28;20281;-86
2021/07/05 08:24:07;;;;;;;;;;;;;;;;;;4943015;28;20371;-89
2021/07/05 08:26:33;;;;;;;;;;;;;;;;;;4943457;28;19921;-88
2021/07/05 08:28:59;;;;;;;;;;;;;;;;;;4941972;28;19915;-89
2021/07/05 08:31:25;;;;;;;;;;;;;;;;;;4957649;28;19910;-87
2021/07/05 08:33:51;;;;;;;;;;;;;;;;;;4941387;28;19914;-88
2021/07/05 08:36:18;;;;;;;;;;;;;;;;;;4953900;28;19922;-89
2021/07/05 08:38:45;;;;;;;;;;;;;;;;;;4940373;28;19957;-91
2021/07/05 08:41:11;;;;;;;;;;;;;;;;;;4941113;28;20017;-91
2021/07/05 08:43:37;;;;;;;;;;;;;;;;;;4947638;28;19938;-90
2021/07/05 08:46:03;;;;;;;;;;;;;;;;;;4946286;28;19918;-92
2021/07/05 08:48:29;;;;;;;;;;;;;;;;;;4967457;28;19914;-92
2021/07/05 08:50:55;;;;;;;;;;;;;;;;;;4947267;28;19915;-90
2021/07/05 08:53:21;;;;;;;;;;;;;;;;;;4936685;28;19938;-92
2021/07/05 08:55:47;;;;;;;;;;;;;;;;;;4949167;28;19921;-87
2021/07/05 08:58:13;;;;;;;;;;;;;;;;;;4934521;28;19926;-90
2021/07/05 09:00:40;;;;;;;;;;;;;;;;;;4940824;29;19922;-88
2021/07/05 09:03:06;;;;;;;;;;;;;;;;;;4960740;28;19947;-90
2021/07/05 09:05:32;;;;;;;;;;;;;;;;;;4956361;28;19914;-90
2021/07/05 09:08:01;;;;;;;;;;;;;;;;;;4953726;28;19918;-91
2021/07/05 09:10:27;;;;;;;;;;;;;;;;;;4959660;29;19922;-89
2021/07/05 09:12:53;;;;;;;;;;;;;;;;;;4965378;28;19922;-88
2021/07/05 09:15:20;;;;;;;;;;;;;;;;;;4953168;29;19946;-90
2021/07/05 09:17:46;;;;;;;;;;;;;;;;;;4941692;29;19915;-91
2021/07/05 09:20:12;;;;;;;;;;;;;;;;;;4948028;29;19925;-92
2021/07/05 09:22:38;;;;;;;;;;;;;;;;;;4935107;29;19915;-88
2021/07/05 09:25:04;;;;;;;;;;;;;;;;;;4937063;29;19919;-89
2021/07/05 09:27:33;;;;;;;;;;;;;;;;;;4934893;29;20286;-88
2021/07/05 09:29:59;;;;;;;;;;;;;;;;;;4939944;29;19915;-88
2021/07/05 09:32:26;;;;;;;;;;;;;;;;;;4970389;28;20600;-88
2021/07/05 09:34:52;;;;;;;;;;;;;;;;;;4933841;28;20331;-88
2021/07/05 09:37:21;;;;;;;;;;;;;;;;;;4952802;28;19918;-91
2021/07/05 09:39:47;;;;;;;;;;;;;;;;;;4936074;29;20017;-89
2021/07/05 09:42:13;;;;;;;;;;;;;;;;;;4950858;28;20414;-89
2021/07/05 09:44:39;;;;;;;;;;;;;;;;;;4943282;28;19917;-90
2021/07/05 09:47:05;;;;;;;;;;;;;;;;;;4936546;28;19938;-89
2021/07/05 09:49:31;;;;;;;;;;;;;;;;;;4938680;29;19977;-88
2021/07/05 09:51:57;;;;;;;;;;;;;;;;;;4935796;29;20339;-88
2021/07/05 09:54:23;;;;;;;;;;;;;;;;;;4953040;28;19915;-90
2021/07/05 09:56:52;;;;;;;;;;;;;;;;;;4948346;28;19914;-90
2021/07/05 09:59:18;;;;;;;;;;;;;;;;;;4955071;28;19918;-91
2021/07/05 10:01:45;;;;;;;;;;;;;;;;;;4941946;28;19915;-88
2021/07/05 10:04:11;;;;;;;;;;;;;;;;;;4939302;28;19980;-89
2021/07/05 10:06:38;;;;;;;;;;;;;;;;;;4960143;28;19923;-90
2021/07/05 10:09:04;;;;;;;;;;;;;;;;;;4954418;28;19926;-90
2021/07/05 10:11:30;;;;;;;;;;;;;;;;;;4956497;28;19961;-90
2021/07/05 10:13:56;;;;;;;;;;;;;;;;;;4940097;28;19919;-91
2021/07/05 10:16:22;;;;;;;;;;;;;;;;;;4941680;28;19963;-93
2021/07/05 10:18:48;;;;;;;;;;;;;;;;;;4944892;28;19929;-91
2021/07/05 10:21:14;;;;;;;;;;;;;;;;;;4967524;28;20001;-91
2021/07/05 10:23:40;;;;;;;;;;;;;;;;;;4951688;28;19962;-92
2021/07/05 10:26:07;;;;;;;;;;;;;;;;;;4939300;28;19970;-89
2021/07/05 10:28:33;;;;;;;;;;;;;;;;;;4935931;29;19922;-90
2021/07/05 10:30:59;;;;;;;;;;;;;;;;;;4950823;28;19922;-89
2021/07/05 10:33:25;;;;;;;;;;;;;;;;;;4946517;28;19921;-92
2021/07/05 10:35:51;;;;;;;;;;;;;;;;;;4954258;28;19929;-90
2021/07/05 10:38:18;;;;;;;;;;;;;;;;;;4943881;28;19983;-91
2021/07/05 10:40:47;;;;;;;;;;;;;;;;;;4937385;29;19918;-90
2021/07/05 10:43:15;;;;;;;;;;;;;;;;;;4956076;28;19974;-89
2021/07/05 10:45:41;;;;;;;;;;;;;;;;;;4944641;29;19954;-89
2021/07/05 10:48:07;;;;;;;;;;;;;;;;;;4949573;28;19915;-90
2021/07/05 10:50:33;;;;;;;;;;;;;;;;;;4943856;28;19915;-91
2021/07/05 10:52:59;;;;;;;;;;;;;;;;;;4931991;28;19918;-89
2021/07/05 10:55:25;;;;;;;;;;;;;;;;;;4931692;28;19922;-90
2021/07/05 10:57:51;;;;;;;;;;;;;;;;;;4928746;28;19931;-91
2021/07/05 11:00:20;;;;;;;;;;;;;;;;;;4950378;28;19925;-91
2021/07/05 11:02:46;;;;;;;;;;;;;;;;;;4933237;29;19923;-92
2021/07/05 11:05:12;;;;;;;;;;;;;;;;;;4934895;28;19922;-92
2021/07/05 11:07:38;;;;;;;;;;;;;;;;;;4938870;29;19922;-93
2021/07/05 11:10:10;;;;;;;;;;;;;;;;;;4934189;28;19914;-91
2021/07/05 11:12:37;;;;;;;;;;;;;;;;;;4955174;28;20005;-93
2021/07/05 11:15:03;;;;;;;;;;;;;;;;;;4940796;29;19926;-92
2021/07/05 11:17:30;;;;;;;;;;;;;;;;;;4939136;29;19910;-91
2021/07/05 11:19:56;;;;;;;;;;;;;;;;;;4939170;28;19926;-90
2021/07/05 11:22:22;;;;;;;;;;;;;;;;;;4929382;28;19954;-89
2021/07/05 11:24:50;;;;;;;;;;;;;;;;;;4932327;29;19914;-87
2021/07/05 11:27:16;;;;;;;;;;;;;;;;;;4934485;28;20278;-92
2021/07/05 11:29:42;;;;;;;;;;;;;;;;;;4955939;28;20009;-89
2021/07/05 11:32:08;;;;;;;;;;;;;;;;;;4931258;29;20362;-89
2021/07/05 11:34:34;;;;;;;;;;;;;;;;;;4935024;29;20362;-88
2021/07/05 11:37:00;;;;;;;;;;;;;;;;;;4936993;28;20298;-87
2021/07/05 11:39:26;;;;;;;;;;;;;;;;;;4931001;29;19918;-90
2021/07/05 11:41:52;;;;;;;;;;;;;;;;;;4948613;28;21087;-88
2021/07/05 11:44:22;;;;;;;;;;;;;;;;;;4950777;28;20278;-87
2021/07/05 11:46:48;;;;;;;;;;;;;;;;;;4934027;29;20366;-87
2021/07/05 11:49:14;;;;;;;;;;;;;;;;;;4935474;29;20393;-88
2021/07/05 11:51:43;;;;;;;;;;;;;;;;;;4932637;28;19914;-89
2021/07/05 11:54:09;;;;;;;;;;;;;;;;;;4947077;28;22056;-89
2021/07/05 11:56:35;;;;;;;;;;;;;;;;;;4939405;29;20342;-89
2021/07/05 11:59:07;;;;;;;;;;;;;;;;;;4933521;28;19926;-91
2021/07/05 12:01:33;;;;;;;;;;;;;;;;;;4954081;28;21730;-89
2021/07/05 12:03:59;;;;;;;;;;;;;;;;;;4938550;28;19946;-91
2021/07/05 12:06:25;;;;;;;;;;;;;;;;;;4934299;29;19911;-91
2021/07/05 12:08:51;;;;;;;;;;;;;;;;;;4942654;28;19922;-89
2021/07/05 12:11:17;;;;;;;;;;;;;;;;;;4933260;29;20402;-88
2021/07/05 12:13:43;;;;;;;;;;;;;;;;;;4947093;28;19911;-88
2021/07/05 12:16:10;;;;;;;;;;;;;;;;;;4944471;28;20627;-88
2021/07/05 12:18:36;;;;;;;;;;;;;;;;;;4930009;29;19975;-89
2021/07/05 12:21:02;;;;;;;;;;;;;;;;;;4931975;28;19923;-88
2021/07/05 12:23:28;;;;;;;;;;;;;;;;;;4947132;28;19955;-87
2021/07/05 12:25:54;;;;;;;;;;;;;;;;;;4931824;29;19953;-88
2021/07/05 12:28:20;;;;;;;;;;;;;;;;;;4947932;28;20009;-87
2021/07/05 12:30:46;;;;;;;;;;;;;;;;;;4929301;28;19986;-88
2021/07/05 12:33:12;;;;;;;;;;;;;;;;;;4932539;28;19922;-88
2021/07/05 12:35:38;;;;;;;;;;;;;;;;;;4925439;28;20393;-86
2021/07/05 12:38:04;;;;;;;;;;;;;;;;;;4933606;28;19930;-86
2021/07/05 12:40:30;;;;;;;;;;;;;;;;;;4917448;28;20291;-88
2021/07/05 12:42:56;;;;;;;;;;;;;;;;;;4916523;28;19918;-88
2021/07/05 12:45:23;;;;;;;;;;;;;;;;;;4926201;28;19966;-89
2021/07/05 12:47:49;;;;;;;;;;;;;;;;;;4926949;28;20314;-87
2021/07/05 12:50:15;;;;;;;;;;;;;;;;;;4955470;28;19950;-87
2021/07/05 12:52:41;;;;;;;;;;;;;;;;;;4958449;28;19974;-88
2021/07/05 12:55:07;;;;;;;;;;;;;;;;;;4944142;28;19922;-88
2021/07/05 12:57:33;;;;;;;;;;;;;;;;;;4933205;28;19919;-88
2021/07/05 12:59:59;;;;;;;;;;;;;;;;;;4925971;29;20350;-88
2021/07/05 13:02:25;;;;;;;;;;;;;;;;;;4928027;29;19930;-88
2021/07/05 13:04:51;;;;;;;;;;;;;;;;;;4938807;28;19927;-85
2021/07/05 13:07:17;;;;;;;;;;;;;;;;;;4947030;28;19918;-88
2021/07/05 13:09:44;;;;;;;;;;;;;;;;;;4928290;28;20013;-85
2021/07/05 13:12:10;;;;;;;;;;;;;;;;;;4938980;28;20334;-84
2021/07/05 13:14:42;;;;;;;;;;;;;;;;;;4933765;28;19915;-83
2021/07/05 13:17:08;;;;;;;;;;;;;;;;;;4941048;28;19996;-85
2021/07/05 13:19:34;;;;;;;;;;;;;;;;;;4924872;29;20305;-84
2021/07/05 13:22:00;;;;;;;;;;;;;;;;;;4924108;28;19922;-85
2021/07/05 13:24:27;;;;;;;;;;;;;;;;;;4925581;29;19969;-85
2021/07/05 13:26:53;;;;;;;;;;;;;;;;;;4925423;28;20309;-84
2021/07/05 13:29:19;;;;;;;;;;;;;;;;;;4931048;28;19922;-85
2021/07/05 13:31:45;;;;;;;;;;;;;;;;;;4938332;28;19929;-84
2021/07/05 13:34:11;;;;;;;;;;;;;;;;;;4937953;28;19989;-84
2021/07/05 13:36:37;;;;;;;;;;;;;;;;;;4921360;29;19922;-84
2021/07/05 13:39:03;;;;;;;;;;;;;;;;;;4934512;28;20031;-84
2021/07/05 13:41:30;;;;;;;;;;;;;;;;;;4921645;28;19958;-85
2021/07/05 13:43:58;;;;;;;;;;;;;;;;;;4939330;28;20966;-85
2021/07/05 13:46:24;;;;;;;;;;;;;;;;;;4930505;28;19945;-86
2021/07/05 13:48:50;;;;;;;;;;;;;;;;;;4931476;28;20021;-83
2021/07/05 13:51:16;;;;;;;;;;;;;;;;;;4938817;28;19937;-85
2021/07/05 13:53:42;;;;;;;;;;;;;;;;;;4937395;28;19922;-86
2021/07/05 13:56:08;;;;;;;;;;;;;;;;;;4931295;28;20275;-84
2021/07/05 13:58:34;;;;;;;;;;;;;;;;;;4922553;29;19930;-85
2021/07/05 14:01:01;;;;;;;;;;;;;;;;;;4920175;28;20005;-85
2021/07/05 14:03:27;;;;;;;;;;;;;;;;;;4934919;28;19929;-85
2021/07/05 14:05:53;;;;;;;;;;;;;;;;;;4939971;28;20014;-85
2021/07/05 14:08:19;;;;;;;;;;;;;;;;;;4925127;28;19923;-84
2021/07/05 14:10:46;;;;;;;;;;;;;;;;;;4941031;28;19944;-85
2021/07/05 14:13:12;;;;;;;;;;;;;;;;;;4932466;28;21904;-84
2021/07/05 14:15:38;;;;;;;;;;;;;;;;;;4922253;28;20449;-85
2021/07/05 14:18:04;;;;;;;;;;;;;;;;;;4923977;29;20398;-86
2021/07/05 14:20:30;;;;;;;;;;;;;;;;;;4941112;28;19922;-85
2021/07/05 14:22:56;;;;;;;;;;;;;;;;;;4938227;28;19922;-85
2021/07/05 14:25:24;;;;;;;;;;;;;;;;;;4938933;28;20437;-85
2021/07/05 14:27:50;;;;;;;;;;;;;;;;;;4922016;29;19926;-84
2021/07/05 14:30:16;;;;;;;;;;;;;;;;;;4936224;28;19922;-86
2021/07/05 14:32:42;;;;;;;;;;;;;;;;;;4922812;29;19997;-87
2021/07/05 14:35:08;;;;;;;;;;;;;;;;;;4937783;28;20429;-85
2021/07/05 14:37:34;;;;;;;;;;;;;;;;;;4925354;29;19925;-86
2021/07/05 14:40:00;;;;;;;;;;;;;;;;;;4930000;28;19926;-85
2021/07/05 14:42:26;;;;;;;;;;;;;;;;;;4939403;28;19965;-85
2021/07/05 14:44:53;;;;;;;;;;;;;;;;;;4935289;28;19957;-84
2021/07/05 14:47:20;;;;;;;;;;;;;;;;;;4923325;28;19922;-87
2021/07/05 14:49:46;;;;;;;;;;;;;;;;;;4924419;29;19926;-86
2021/07/05 14:52:12;;;;;;;;;;;;;;;;;;4922331;29;19918;-86
2021/07/05 14:54:38;;;;;;;;;;;;;;;;;;4923894;28;19922;-86
2021/07/05 14:57:04;;;;;;;;;;;;;;;;;;4920563;28;19918;-86
2021/07/05 14:59:30;;;;;;;;;;;;;;;;;;4924222;29;20030;-86
2021/07/05 15:01:56;;;;;;;;;;;;;;;;;;4930386;28;19997;-84
2021/07/05 15:04:22;;;;;;;;;;;;;;;;;;4937758;28;19918;-86
2021/07/05 15:06:48;;;;;;;;;;;;;;;;;;4922876;29;20286;-86
2021/07/05 15:09:14;;;;;;;;;;;;;;;;;;4938081;28;19915;-86
2021/07/05 15:11:40;;;;;;;;;;;;;;;;;;4936378;28;19914;-85
2021/07/05 15:14:06;;;;;;;;;;;;;;;;;;4936131;28;22024;-85
2021/07/05 15:16:32;;;;;;;;;;;;;;;;;;4922781;29;19957;-87
2021/07/05 15:18:59;;;;;;;;;;;;;;;;;;4923481;29;20037;-86
2021/07/05 15:21:25;;;;;;;;;;;;;;;;;;4923588;28;19959;-87
2021/07/05 15:23:51;;;;;;;;;;;;;;;;;;4923712;29;20005;-86
2021/07/05 15:26:17;;;;;;;;;;;;;;;;;;4914337;28;21512;-85
2021/07/05 15:28:43;;;;;;;;;;;;;;;;;;4907090;28;19922;-85
2021/07/05 15:31:09;;;;;;;;;;;;;;;;;;4920914;28;19923;-86
2021/07/05 15:33:35;;;;;;;;;;;;;;;;;;4922590;28;19922;-86
2021/07/05 15:36:01;;;;;;;;;;;;;;;;;;4934463;28;19922;-86
2021/07/05 15:38:27;;;;;;;;;;;;;;;;;;4924226;29;20562;-85
2021/07/05 15:40:53;;;;;;;;;;;;;;;;;;4939074;28;19926;-85
2021/07/05 15:43:19;;;;;;;;;;;;;;;;;;4931636;28;19923;-86
2021/07/05 15:45:48;;;;;;;;;;;;;;;;;;4926344;28;19922;-85
2021/07/05 15:48:14;;;;;;;;;;;;;;;;;;4936052;28;19957;-86
2021/07/05 15:50:40;;;;;;;;;;;;;;;;;;4923613;29;19926;-86
2021/07/05 15:53:06;;;;;;;;;;;;;;;;;;4921978;29;19977;-86
2021/07/05 15:55:32;;;;;;;;;;;;;;;;;;4919792;29;19918;-86
2021/07/05 15:57:59;;;;;;;;;;;;;;;;;;4936663;28;19926;-85
2021/07/05 16:00:25;;;;;;;;;;;;;;;;;;4929163;28;19936;-88
2021/07/05 16:02:53;;;;;;;;;;;;;;;;;;4923738;29;20394;-89
2021/07/05 16:05:19;;;;;;;;;;;;;;;;;;4943711;28;19954;-86
2021/07/05 16:07:45;;;;;;;;;;;;;;;;;;4944547;28;19961;-87
2021/07/05 16:10:11;;;;;;;;;;;;;;;;;;4948141;28;19922;-90
2021/07/05 16:12:37;;;;;;;;;;;;;;;;;;4932630;28;19925;-91
2021/07/05 16:15:03;;;;;;;;;;;;;;;;;;4927170;29;19914;-89
2021/07/05 16:17:29;;;;;;;;;;;;;;;;;;4937514;28;20458;-92
2021/07/05 16:19:55;;;;;;;;;;;;;;;;;;4936397;28;19934;-89
2021/07/05 16:22:21;;;;;;;;;;;;;;;;;;4926157;28;19929;-89
2021/07/05 16:24:47;;;;;;;;;;;;;;;;;;4938030;28;19923;-91
2021/07/05 16:27:13;;;;;;;;;;;;;;;;;;4942892;28;19921;-91
2021/07/05 16:29:40;;;;;;;;;;;;;;;;;;4935053;28;19922;-89
2021/07/05 16:32:05;;;;;;;;;;;;;;;;;;4935023;28;19918;-90
2021/07/05 16:34:31;;;;;;;;;;;;;;;;;;4938216;28;19919;-89
2021/07/05 16:36:58;;;;;;;;;;;;;;;;;;4917472;28;20259;-90
2021/07/05 16:39:24;;;;;;;;;;;;;;;;;;4934304;28;19923;-91
2021/07/05 16:41:53;;;;;;;;;;;;;;;;;;4921077;28;20342;-89